createdAt,value
2024-03-13T00:00:23.718Z,100.00
2024-03-13T00:01:26.052Z,100.00
2024-03-13T00:02:29.834Z,100.00
2024-03-13T00:03:33.286Z,100.00
2024-03-13T00:04:56.071Z,100.00
2024-03-13T00:05:57.537Z,100.00
2024-03-13T00:07:02.287Z,100.00
2024-03-13T00:08:04.079Z,100.00
2024-03-13T00:09:05.668Z,100.00
2024-03-13T00:10:09.467Z,100.00
2024-03-13T00:11:10.960Z,100.00
2024-03-13T00:12:15.185Z,100.00
2024-03-13T00:13:19.456Z,100.00
2024-03-13T00:14:21.057Z,100.00
2024-03-13T00:15:25.361Z,100.00
2024-03-13T00:16:28.625Z,100.00
2024-03-13T00:17:31.461Z,100.00
2024-03-13T00:18:33.037Z,100.00
2024-03-13T00:19:34.608Z,100.00
2024-03-13T00:20:38.821Z,100.00
2024-03-13T00:21:41.698Z,100.00
2024-03-13T00:22:45.678Z,100.00
2024-03-13T00:23:47.171Z,100.00
2024-03-13T00:24:53.855Z,100.00
2024-03-13T00:25:57.272Z,100.00
2024-03-13T00:26:58.929Z,100.00
2024-03-13T00:28:00.591Z,100.00
2024-03-13T00:29:05.323Z,100.00
2024-03-13T00:30:07.714Z,100.00
2024-03-13T00:31:09.844Z,100.00
2024-03-13T00:32:12.615Z,100.00
2024-03-13T00:33:14.251Z,100.00
2024-03-13T00:34:16.296Z,100.00
2024-03-13T00:35:17.788Z,100.00
2024-03-13T00:36:20.422Z,100.00
2024-03-13T00:37:22.828Z,100.00
2024-03-13T00:38:26.968Z,100.00
2024-03-13T00:39:28.429Z,100.00
2024-03-13T00:40:30.144Z,100.00
2024-03-13T00:41:31.874Z,100.00
2024-03-13T00:42:33.897Z,100.00
2024-03-13T00:43:35.281Z,100.00
2024-03-13T00:44:38.362Z,100.00
2024-03-13T00:45:39.816Z,100.00
2024-03-13T00:46:41.589Z,100.00
2024-03-13T00:47:43.109Z,100.00
2024-03-13T00:48:44.626Z,100.00
2024-03-13T00:49:46.086Z,100.00
2024-03-13T00:50:50.757Z,100.00
2024-03-13T00:51:52.291Z,100.00
2024-03-13T00:52:55.863Z,100.00
2024-03-13T00:53:57.328Z,100.00
2024-03-13T00:54:58.792Z,100.00
2024-03-13T00:56:00.257Z,100.00
2024-03-13T00:57:03.055Z,100.00
2024-03-13T00:58:04.657Z,100.00
2024-03-13T00:59:07.111Z,100.00
2024-03-13T01:00:12.856Z,100.00
2024-03-13T01:01:14.442Z,100.00
2024-03-13T01:02:16.490Z,100.00
2024-03-13T01:03:20.420Z,100.00
2024-03-13T01:04:22.213Z,100.00
2024-03-13T01:05:25.732Z,100.00
2024-03-13T01:06:30.063Z,100.00
2024-03-13T01:07:31.586Z,100.00
2024-03-13T01:08:36.515Z,100.00
2024-03-13T01:09:39.483Z,100.00
2024-03-13T01:10:41.366Z,100.00
2024-03-13T01:11:42.854Z,100.00
2024-03-13T01:12:45.084Z,100.00
2024-03-13T01:13:46.676Z,100.00
2024-03-13T01:14:48.145Z,100.00
2024-03-13T01:15:49.611Z,100.00
2024-03-13T01:16:54.176Z,100.00
2024-03-13T01:17:55.794Z,100.00
2024-03-13T01:18:58.680Z,100.00
2024-03-13T01:20:00.240Z,100.00
2024-03-13T01:21:01.756Z,100.00
2024-03-13T01:22:14.135Z,100.00
2024-03-13T01:23:16.698Z,100.00
2024-03-13T01:24:18.276Z,100.00
2024-03-13T01:25:20.683Z,100.00
2024-03-13T01:26:22.380Z,100.00
2024-03-13T01:27:23.864Z,100.00
2024-03-13T01:28:25.346Z,100.00
2024-03-13T01:29:26.842Z,100.00
2024-03-13T01:30:30.470Z,100.00
2024-03-13T01:31:32.344Z,100.00
2024-03-13T01:32:34.220Z,100.00
2024-03-13T01:33:36.707Z,100.00
2024-03-13T01:34:38.159Z,100.00
2024-03-13T01:35:39.677Z,100.00
2024-03-13T01:36:59.838Z,100.00
2024-03-13T01:38:02.835Z,100.00
2024-03-13T01:39:04.541Z,100.00
2024-03-13T01:40:09.584Z,100.00
2024-03-13T01:41:29.546Z,100.00
2024-03-13T01:42:49.428Z,100.00
2024-03-13T01:44:18.549Z,100.00
2024-03-13T01:46:03.535Z,100.00
2024-03-13T01:47:35.624Z,100.00
2024-03-13T01:48:57.312Z,100.00
2024-03-13T01:50:17.749Z,100.00
2024-03-13T01:51:39.072Z,100.00
2024-03-13T01:52:58.881Z,100.00
2024-03-13T01:54:18.613Z,100.00
2024-03-13T01:55:26.869Z,100.00
2024-03-13T01:56:31.156Z,100.00
2024-03-13T01:57:57.134Z,100.00
2024-03-13T01:59:21.358Z,100.00
2024-03-13T02:00:43.177Z,100.00
2024-03-13T02:02:03.577Z,100.00
2024-03-13T02:03:05.394Z,100.00
2024-03-13T02:04:09.306Z,100.00
2024-03-13T02:05:10.815Z,100.00
2024-03-13T02:06:12.541Z,100.00
2024-03-13T02:07:17.465Z,100.00
2024-03-13T02:08:20.138Z,100.00
2024-03-13T02:09:24.691Z,100.00
2024-03-13T02:10:26.296Z,100.00
2024-03-13T02:11:27.951Z,100.00
2024-03-13T02:12:30.644Z,100.00
2024-03-13T02:13:32.638Z,100.00
2024-03-13T02:14:38.393Z,100.00
2024-03-13T02:15:41.477Z,100.00
2024-03-13T02:16:43.011Z,100.00
2024-03-13T02:17:44.615Z,100.00
2024-03-13T02:18:48.366Z,100.00
2024-03-13T02:19:51.804Z,100.00
2024-03-13T02:20:53.988Z,100.00
2024-03-13T02:22:01.311Z,100.00
2024-03-13T02:23:04.006Z,100.00
2024-03-13T02:24:06.231Z,100.00
2024-03-13T02:25:09.607Z,100.00
2024-03-13T02:26:11.145Z,100.00
2024-03-13T02:27:13.412Z,100.00
2024-03-13T02:28:18.570Z,100.00
2024-03-13T02:29:20.531Z,100.00
2024-03-13T02:30:22.378Z,100.00
2024-03-13T02:31:23.970Z,100.00
2024-03-13T02:32:25.518Z,100.00
2024-03-13T02:33:27.165Z,100.00
2024-03-13T02:34:31.174Z,100.00
2024-03-13T02:35:33.907Z,100.00
2024-03-13T02:36:35.418Z,100.00
2024-03-13T02:37:41.262Z,100.00
2024-03-13T02:38:42.869Z,100.00
2024-03-13T02:39:47.515Z,100.00
2024-03-13T02:40:49.158Z,100.00
2024-03-13T02:41:50.813Z,100.00
2024-03-13T02:42:54.342Z,100.00
2024-03-13T02:43:59.815Z,100.00
2024-03-13T02:45:01.323Z,100.00
2024-03-13T02:46:03.731Z,100.00
2024-03-13T02:47:05.586Z,100.00
2024-03-13T02:48:07.796Z,100.00
2024-03-13T02:49:09.309Z,100.00
2024-03-13T02:50:13.144Z,100.00
2024-03-13T02:51:14.798Z,100.00
2024-03-13T02:52:16.390Z,100.00
2024-03-13T02:53:19.545Z,100.00
2024-03-13T02:54:21.038Z,100.00
2024-03-13T02:55:22.593Z,100.00
2024-03-13T02:56:24.091Z,100.00
2024-03-13T02:57:26.378Z,100.00
2024-03-13T02:58:27.959Z,100.00
2024-03-13T02:59:29.514Z,100.00
2024-03-13T03:00:31.534Z,100.00
2024-03-13T03:01:33.030Z,100.00
2024-03-13T03:02:36.167Z,100.00
2024-03-13T03:03:37.677Z,100.00
2024-03-13T03:04:39.178Z,100.00
2024-03-13T03:05:40.682Z,100.00
2024-03-13T03:06:42.194Z,100.00
2024-03-13T03:07:44.580Z,100.00
2024-03-13T03:08:46.620Z,100.00
2024-03-13T03:09:48.007Z,100.00
2024-03-13T03:10:49.945Z,100.00
2024-03-13T03:11:51.826Z,100.00
2024-03-13T03:12:56.394Z,100.00
2024-03-13T03:13:57.869Z,100.00
2024-03-13T03:15:04.132Z,100.00
2024-03-13T03:16:11.538Z,100.00
2024-03-13T03:17:15.687Z,100.00
2024-03-13T03:18:19.052Z,100.00
2024-03-13T03:19:24.662Z,100.00
2024-03-13T03:20:26.267Z,100.00
2024-03-13T03:21:28.246Z,100.00
2024-03-13T03:22:30.038Z,100.00
2024-03-13T03:23:31.503Z,100.00
2024-03-13T03:24:32.954Z,100.00
2024-03-13T03:25:34.439Z,100.00
2024-03-13T03:26:35.911Z,100.00
2024-03-13T03:27:37.565Z,100.00
2024-03-13T03:28:39.025Z,100.00
2024-03-13T03:29:41.961Z,100.00
2024-03-13T03:30:44.041Z,100.00
2024-03-13T03:31:45.632Z,100.00
2024-03-13T03:32:47.139Z,100.00
2024-03-13T03:33:48.651Z,100.00
2024-03-13T03:34:50.140Z,100.00
2024-03-13T03:35:51.737Z,100.00
2024-03-13T03:36:54.348Z,100.00
2024-03-13T03:37:55.879Z,100.00
2024-03-13T03:38:57.427Z,100.00
2024-03-13T03:39:58.952Z,100.00
2024-03-13T03:41:01.048Z,100.00
2024-03-13T03:42:05.323Z,100.00
2024-03-13T03:43:06.969Z,100.00
2024-03-13T03:44:12.290Z,100.00
2024-03-13T03:45:14.514Z,100.00
2024-03-13T03:46:16.204Z,100.00
2024-03-13T03:47:17.660Z,100.00
2024-03-13T03:48:22.844Z,100.00
2024-03-13T03:49:24.509Z,100.00
2024-03-13T03:50:27.083Z,100.00
2024-03-13T03:51:28.562Z,100.00
2024-03-13T03:52:30.116Z,100.00
2024-03-13T03:53:31.599Z,100.00
2024-03-13T03:54:33.068Z,100.00
2024-03-13T03:55:34.583Z,100.00
2024-03-13T03:56:40.517Z,100.00
2024-03-13T03:57:42.593Z,100.00
2024-03-13T03:58:44.063Z,100.00
2024-03-13T03:59:45.527Z,100.00
2024-03-13T04:00:47.341Z,100.00
2024-03-13T04:01:50.643Z,100.00
2024-03-13T04:02:52.925Z,100.00
2024-03-13T04:03:54.557Z,100.00
2024-03-13T04:04:56.099Z,100.00
2024-03-13T04:05:58.213Z,100.00
2024-03-13T04:06:59.623Z,100.00
2024-03-13T04:08:01.133Z,100.00
2024-03-13T04:09:15.693Z,100.00
2024-03-13T04:10:17.457Z,100.00
2024-03-13T04:11:21.972Z,100.00
2024-03-13T04:12:25.452Z,100.00
2024-03-13T04:13:26.946Z,100.00
2024-03-13T04:14:28.431Z,100.00
2024-03-13T04:15:30.061Z,100.00
2024-03-13T04:16:32.321Z,100.00
2024-03-13T04:17:34.918Z,100.00
2024-03-13T04:18:39.048Z,100.00
2024-03-13T04:19:40.933Z,100.00
2024-03-13T04:20:44.218Z,100.00
2024-03-13T04:21:46.351Z,100.00
2024-03-13T04:22:48.052Z,100.00
2024-03-13T04:23:50.719Z,100.00
2024-03-13T04:24:52.585Z,100.00
2024-03-13T04:25:54.110Z,100.00
2024-03-13T04:26:55.565Z,100.00
2024-03-13T04:27:57.209Z,100.00
2024-03-13T04:28:59.588Z,100.00
2024-03-13T04:30:01.498Z,100.00
2024-03-13T04:31:03.124Z,100.00
2024-03-13T04:32:05.598Z,100.00
2024-03-13T04:33:07.309Z,100.00
2024-03-13T04:34:11.311Z,100.00
2024-03-13T04:35:16.651Z,100.00
2024-03-13T04:36:18.144Z,100.00
2024-03-13T04:37:24.277Z,100.00
2024-03-13T04:38:26.165Z,100.00
2024-03-13T04:39:27.654Z,100.00
2024-03-13T04:40:29.231Z,100.00
2024-03-13T04:41:34.520Z,100.00
2024-03-13T04:42:36.034Z,100.00
2024-03-13T04:43:37.489Z,100.00
2024-03-13T04:44:38.951Z,100.00
2024-03-13T04:45:40.414Z,100.00
2024-03-13T04:46:44.551Z,100.00
2024-03-13T04:47:46.043Z,100.00
2024-03-13T04:48:47.698Z,100.00
2024-03-13T04:49:49.415Z,100.00
2024-03-13T04:50:50.849Z,100.00
2024-03-13T04:51:52.368Z,100.00
2024-03-13T04:52:54.671Z,100.00
2024-03-13T04:53:56.223Z,100.00
2024-03-13T04:55:00.446Z,100.00
2024-03-13T04:56:01.924Z,100.00
2024-03-13T04:57:04.427Z,100.00
2024-03-13T04:58:06.264Z,100.00
2024-03-13T04:59:07.779Z,100.00
2024-03-13T05:00:09.629Z,100.00
2024-03-13T05:01:20.735Z,100.00
2024-03-13T05:02:22.272Z,100.00
2024-03-13T05:03:23.725Z,100.00
2024-03-13T05:04:25.375Z,100.00
2024-03-13T05:05:26.989Z,100.00
2024-03-13T05:06:28.478Z,100.00
2024-03-13T05:07:30.117Z,100.00
2024-03-13T05:08:31.614Z,100.00
2024-03-13T05:09:33.141Z,100.00
2024-03-13T05:10:34.615Z,100.00
2024-03-13T05:11:36.208Z,100.00
2024-03-13T05:12:38.692Z,100.00
2024-03-13T05:13:40.160Z,100.00
2024-03-13T05:14:41.634Z,100.00
2024-03-13T05:15:44.728Z,100.00
2024-03-13T05:16:46.547Z,100.00
2024-03-13T05:17:50.681Z,100.00
2024-03-13T05:18:53.530Z,100.00
2024-03-13T05:19:55.284Z,100.00
2024-03-13T05:20:56.710Z,100.00
2024-03-13T05:22:01.070Z,100.00
2024-03-13T05:23:07.555Z,100.00
2024-03-13T05:24:10.028Z,100.00
2024-03-13T05:25:20.483Z,100.00
2024-03-13T05:26:22.098Z,100.00
2024-03-13T05:27:24.009Z,100.00
2024-03-13T05:28:26.381Z,100.00
2024-03-13T05:29:28.281Z,100.00
2024-03-13T05:30:30.602Z,100.00
2024-03-13T05:31:32.117Z,100.00
2024-03-13T05:32:33.622Z,100.00
2024-03-13T05:33:39.484Z,100.00
2024-03-13T05:34:41.152Z,100.00
2024-03-13T05:35:43.519Z,100.00
2024-03-13T05:36:44.963Z,100.00
2024-03-13T05:37:47.454Z,100.00
2024-03-13T05:38:48.933Z,100.00
2024-03-13T05:39:53.520Z,100.00
2024-03-13T05:40:55.259Z,100.00
2024-03-13T05:41:56.945Z,100.00
2024-03-13T05:42:58.419Z,100.00
2024-03-13T05:44:00.875Z,100.00
2024-03-13T05:45:02.941Z,100.00
2024-03-13T05:46:06.347Z,100.00
2024-03-13T05:47:08.030Z,100.00
2024-03-13T05:48:09.644Z,100.00
2024-03-13T05:49:12.310Z,100.00
2024-03-13T05:50:14.065Z,100.00
2024-03-13T05:51:15.747Z,100.00
2024-03-13T05:52:17.403Z,100.00
2024-03-13T05:53:18.932Z,100.00
2024-03-13T05:54:20.498Z,100.00
2024-03-13T05:55:22.641Z,100.00
2024-03-13T05:56:24.214Z,100.00
2024-03-13T05:57:25.804Z,100.00
2024-03-13T05:58:27.445Z,100.00
2024-03-13T05:59:28.968Z,100.00
2024-03-13T06:00:30.454Z,100.00
2024-03-13T06:01:32.078Z,100.00
2024-03-13T06:02:34.459Z,100.00
2024-03-13T06:03:37.613Z,100.00
2024-03-13T06:04:39.178Z,100.00
2024-03-13T06:05:40.677Z,100.00
2024-03-13T06:06:42.148Z,100.00
2024-03-13T06:07:43.777Z,100.00
2024-03-13T06:08:45.230Z,100.00
2024-03-13T06:09:46.699Z,100.00
2024-03-13T06:10:49.417Z,100.00
2024-03-13T06:11:51.026Z,100.00
2024-03-13T06:12:52.592Z,100.00
2024-03-13T06:13:55.035Z,100.00
2024-03-13T06:14:56.583Z,100.00
2024-03-13T06:15:58.085Z,100.00
2024-03-13T06:16:59.630Z,100.00
2024-03-13T06:18:01.261Z,100.00
2024-03-13T06:19:02.867Z,100.00
2024-03-13T06:20:07.570Z,100.00
2024-03-13T06:21:09.168Z,100.00
2024-03-13T06:22:11.713Z,100.00
2024-03-13T06:23:16.527Z,100.00
2024-03-13T06:24:24.250Z,100.00
2024-03-13T06:25:27.805Z,100.00
2024-03-13T06:26:29.429Z,100.00
2024-03-13T06:27:30.890Z,100.00
2024-03-13T06:28:50.850Z,100.00
2024-03-13T06:30:02.399Z,100.00
2024-03-13T06:31:04.254Z,100.00
2024-03-13T06:32:07.497Z,100.00
2024-03-13T06:33:12.331Z,100.00
2024-03-13T06:34:13.952Z,100.00
2024-03-13T06:35:15.458Z,100.00
2024-03-13T06:36:17.247Z,100.00
2024-03-13T06:37:18.989Z,100.00
2024-03-13T06:38:21.012Z,100.00
2024-03-13T06:39:22.642Z,100.00
2024-03-13T06:40:24.291Z,100.00
2024-03-13T06:41:25.804Z,100.00
2024-03-13T06:42:27.622Z,100.00
2024-03-13T06:43:29.284Z,100.00
2024-03-13T06:44:30.952Z,100.00
2024-03-13T06:45:39.115Z,100.00
2024-03-13T06:46:41.889Z,100.00
2024-03-13T06:47:43.415Z,100.00
2024-03-13T06:48:44.914Z,100.00
2024-03-13T06:49:46.639Z,100.00
2024-03-13T06:50:48.936Z,100.00
2024-03-13T06:51:50.529Z,100.00
2024-03-13T06:52:52.632Z,100.00
2024-03-13T06:53:54.002Z,100.00
2024-03-13T06:54:55.931Z,100.00
2024-03-13T06:55:57.416Z,100.00
2024-03-13T06:56:58.956Z,100.00
2024-03-13T06:58:00.495Z,100.00
2024-03-13T06:59:02.211Z,100.00
2024-03-13T07:00:04.699Z,100.00
2024-03-13T07:01:17.253Z,100.00
2024-03-13T07:02:18.905Z,100.00
2024-03-13T07:03:20.485Z,100.00
2024-03-13T07:04:23.472Z,100.00
2024-03-13T07:05:25.047Z,100.00
2024-03-13T07:06:29.289Z,100.00
2024-03-13T07:07:31.641Z,100.00
2024-03-13T07:08:33.475Z,100.00
2024-03-13T07:09:35.111Z,100.00
2024-03-13T07:10:36.881Z,100.00
2024-03-13T07:11:38.548Z,100.00
2024-03-13T07:12:40.252Z,100.00
2024-03-13T07:13:41.724Z,100.00
2024-03-13T07:14:43.168Z,100.00
2024-03-13T07:15:44.648Z,100.00
2024-03-13T07:16:46.653Z,100.00
2024-03-13T07:17:51.626Z,100.00
2024-03-13T07:18:53.170Z,100.00
2024-03-13T07:19:54.817Z,100.00
2024-03-13T07:20:56.578Z,100.00
2024-03-13T07:21:58.081Z,100.00
2024-03-13T07:22:59.550Z,100.00
2024-03-13T07:24:01.041Z,100.00
2024-03-13T07:25:03.564Z,100.00
2024-03-13T07:26:08.544Z,100.00
2024-03-13T07:27:10.040Z,100.00
2024-03-13T07:28:12.664Z,100.00
2024-03-13T07:29:14.221Z,100.00
2024-03-13T07:30:15.958Z,100.00
2024-03-13T07:31:17.473Z,100.00
2024-03-13T07:32:19.047Z,100.00
2024-03-13T07:33:20.775Z,100.00
2024-03-13T07:34:22.300Z,100.00
2024-03-13T07:35:26.051Z,100.00
2024-03-13T07:36:28.457Z,100.00
2024-03-13T07:37:30.279Z,100.00
2024-03-13T07:38:34.862Z,100.00
2024-03-13T07:39:36.438Z,100.00
2024-03-13T07:40:41.689Z,100.00
2024-03-13T07:41:43.213Z,100.00
2024-03-13T07:42:44.802Z,100.00
2024-03-13T07:43:46.695Z,100.00
2024-03-13T07:44:48.247Z,100.00
2024-03-13T07:45:49.873Z,100.00
2024-03-13T07:46:52.585Z,100.00
2024-03-13T07:47:54.201Z,100.00
2024-03-13T07:48:55.813Z,100.00
2024-03-13T07:49:57.347Z,100.00
2024-03-13T07:50:58.838Z,100.00
2024-03-13T07:52:02.728Z,100.00
2024-03-13T07:53:05.569Z,100.00
2024-03-13T07:54:08.708Z,100.00
2024-03-13T07:55:12.635Z,100.00
2024-03-13T07:56:14.175Z,100.00
2024-03-13T07:57:15.735Z,100.00
2024-03-13T07:58:17.311Z,100.00
2024-03-13T07:59:18.834Z,100.00
2024-03-13T08:00:23.367Z,100.00
2024-03-13T08:01:25.232Z,100.00
2024-03-13T08:02:26.853Z,100.00
2024-03-13T08:03:29.073Z,100.00
2024-03-13T08:04:30.648Z,100.00
2024-03-13T08:05:33.204Z,100.00
2024-03-13T09:06:18.465Z,90.31
2024-03-13T09:07:19.970Z,90.41
2024-03-13T09:08:35.258Z,90.09
2024-03-13T09:09:43.046Z,88.92
2024-03-13T09:10:44.667Z,88.77
2024-03-13T09:11:47.146Z,85.52
2024-03-13T09:12:51.742Z,89.29
2024-03-13T09:13:54.724Z,84.65
2024-03-13T09:14:56.368Z,84.21
2024-03-13T09:16:02.213Z,86.88
2024-03-13T09:17:06.674Z,87.61
2024-03-13T09:18:08.513Z,86.68
2024-03-13T09:19:10.613Z,82.32
2024-03-13T09:20:15.499Z,82.21
2024-03-13T09:21:17.872Z,82.42
2024-03-13T09:22:19.996Z,80.63
2024-03-13T09:23:21.489Z,81.07
2024-03-13T09:24:23.189Z,81.04
2024-03-13T09:25:25.137Z,80.42
2024-03-13T09:26:26.823Z,79.94
2024-03-13T09:27:28.567Z,77.83
2024-03-13T09:28:30.454Z,76.62
2024-03-13T09:29:32.993Z,78.80
2024-03-13T09:30:34.538Z,79.82
2024-03-13T09:31:39.789Z,77.51
2024-03-13T09:32:42.217Z,79.96
2024-03-13T09:33:43.925Z,77.19
2024-03-13T09:34:45.445Z,78.78
2024-03-13T09:35:47.037Z,79.41
2024-03-13T09:36:48.830Z,79.44
2024-03-13T09:37:50.280Z,79.53
2024-03-13T09:38:52.036Z,77.67
2024-03-13T09:39:53.667Z,76.95
2024-03-13T09:40:55.208Z,77.36
2024-03-13T09:41:58.738Z,77.92
2024-03-13T09:43:04.724Z,77.00
2024-03-13T09:44:07.592Z,76.09
2024-03-13T09:45:15.330Z,76.85
2024-03-13T09:46:18.045Z,78.33
2024-03-13T09:47:20.913Z,75.21
2024-03-13T09:48:22.915Z,76.92
2024-03-13T09:49:28.567Z,76.73
2024-03-13T09:50:37.534Z,77.93
2024-03-13T09:51:46.821Z,74.18
2024-03-13T09:52:54.795Z,75.21
2024-03-13T09:53:59.908Z,71.40
2024-03-13T09:55:04.859Z,69.49
2024-03-13T09:56:11.939Z,70.91
2024-03-13T09:57:15.227Z,72.26
2024-03-13T09:58:17.133Z,71.15
2024-03-13T09:59:18.634Z,71.37
2024-03-13T10:00:20.612Z,71.21
2024-03-13T10:01:28.143Z,69.35
2024-03-13T10:02:37.729Z,68.35
2024-03-13T10:03:43.811Z,68.59
2024-03-13T10:04:46.606Z,68.32
2024-03-13T10:05:53.824Z,67.62
2024-03-13T10:07:00.111Z,63.99
2024-03-13T10:08:04.346Z,64.59
2024-03-13T10:09:13.730Z,67.83
2024-03-13T10:10:25.087Z,67.53
2024-03-13T10:11:27.377Z,66.18
2024-03-13T10:12:29.019Z,64.11
2024-03-13T10:13:30.787Z,66.49
2024-03-13T10:14:33.099Z,64.75
2024-03-13T10:15:34.911Z,65.18
2024-03-13T10:16:37.019Z,65.33
2024-03-13T10:17:41.973Z,63.95
2024-03-13T10:18:50.700Z,66.04
2024-03-13T10:19:55.448Z,64.83
2024-03-13T10:21:09.649Z,67.15
2024-03-13T10:22:12.440Z,66.77
2024-03-13T10:23:16.084Z,65.25
2024-03-13T10:24:20.111Z,62.51
2024-03-13T10:25:21.715Z,65.32
2024-03-13T10:26:25.178Z,62.53
2024-03-13T10:27:28.061Z,62.21
2024-03-13T10:28:30.928Z,62.45
2024-03-13T10:29:35.796Z,62.46
2024-03-13T10:30:37.578Z,63.16
2024-03-13T10:31:39.439Z,60.91
2024-03-13T10:32:41.943Z,61.28
2024-03-13T10:33:43.842Z,61.71
2024-03-13T10:34:46.618Z,61.45
2024-03-13T10:35:48.121Z,60.09
2024-03-13T10:36:57.870Z,60.40
2024-03-13T10:38:11.949Z,60.87
2024-03-13T10:39:13.635Z,61.43
2024-03-13T10:40:17.899Z,61.08
2024-03-13T10:41:19.379Z,60.95
2024-03-13T10:42:20.907Z,59.91
2024-03-13T10:43:22.459Z,58.73
2024-03-13T10:44:25.316Z,57.25
2024-03-13T10:45:26.906Z,60.10
2024-03-13T10:46:28.430Z,59.71
2024-03-13T10:47:29.949Z,57.61
2024-03-13T10:48:31.528Z,60.36
2024-03-13T10:49:33.043Z,60.16
2024-03-13T10:50:35.097Z,60.68
2024-03-13T10:51:36.644Z,57.13
2024-03-13T10:52:40.848Z,58.61
2024-03-13T10:53:45.469Z,57.37
2024-03-13T10:54:47.317Z,57.50
2024-03-13T10:55:48.745Z,60.45
2024-03-13T10:56:53.599Z,60.03
2024-03-13T10:57:55.149Z,61.97
2024-03-13T10:58:58.462Z,61.17
2024-03-13T11:00:01.333Z,59.58
2024-03-13T11:01:03.064Z,61.17
2024-03-13T11:02:05.003Z,60.30
2024-03-13T11:03:11.855Z,58.49
2024-03-13T11:04:16.067Z,59.53
2024-03-13T11:05:18.351Z,59.09
2024-03-13T11:06:19.916Z,59.43
2024-03-13T11:07:22.528Z,61.29
2024-03-13T11:08:27.947Z,57.47
2024-03-13T11:09:29.483Z,57.91
2024-03-13T11:10:31.004Z,56.47
2024-03-13T11:11:36.214Z,58.19
2024-03-13T11:12:41.246Z,54.90
2024-03-13T11:13:51.180Z,54.09
2024-03-13T11:14:57.115Z,56.10
2024-03-13T11:16:02.242Z,55.51
2024-03-13T11:17:06.916Z,55.97
2024-03-13T11:18:10.532Z,56.25
2024-03-13T11:19:17.834Z,56.13
2024-03-13T11:20:22.465Z,54.21
2024-03-13T11:21:47.520Z,54.04
2024-03-13T11:23:05.039Z,52.50
2024-03-13T11:24:12.584Z,51.89
2024-03-13T11:25:18.817Z,51.28
2024-03-13T11:26:22.538Z,51.17
2024-03-13T11:27:28.170Z,51.63
2024-03-13T11:28:33.131Z,53.73
2024-03-13T11:29:44.711Z,56.37
2024-03-13T11:30:48.698Z,54.79
2024-03-13T11:31:53.662Z,54.39
2024-03-13T11:32:56.543Z,56.13
2024-03-13T11:33:59.838Z,52.47
2024-03-13T11:35:01.463Z,54.79
2024-03-13T11:36:04.385Z,55.85
2024-03-13T11:37:08.327Z,54.07
2024-03-13T11:38:11.580Z,52.87
2024-03-13T11:39:17.170Z,55.48
2024-03-13T11:40:19.486Z,52.38
2024-03-13T11:41:21.756Z,55.64
2024-03-13T11:42:30.324Z,54.93
2024-03-13T11:43:33.252Z,55.47
2024-03-13T11:44:37.832Z,53.09
2024-03-13T11:45:45.673Z,52.60
2024-03-13T11:46:49.614Z,53.49
2024-03-13T11:48:02.239Z,49.42
2024-03-13T11:49:04.828Z,50.44
2024-03-13T11:50:11.783Z,50.24
2024-03-13T11:51:15.309Z,49.35
2024-03-13T11:52:17.094Z,51.39
2024-03-13T11:53:19.436Z,52.14
2024-03-13T11:54:30.821Z,49.91
2024-03-13T11:55:32.310Z,52.03
2024-03-13T11:56:34.926Z,51.51
2024-03-13T11:57:36.458Z,52.67
2024-03-13T11:58:40.124Z,50.44
2024-03-13T11:59:53.075Z,52.91
2024-03-13T12:00:55.481Z,52.02
2024-03-13T12:01:56.992Z,49.01
2024-03-13T12:02:58.544Z,49.87
2024-03-13T12:04:04.862Z,51.72
2024-03-13T12:05:08.101Z,52.21
2024-03-13T12:06:25.021Z,55.08
2024-03-13T12:07:26.555Z,56.26
2024-03-13T12:08:28.790Z,51.50
2024-03-13T12:09:31.530Z,49.35
2024-03-13T12:10:33.079Z,48.87
2024-03-13T12:11:34.796Z,51.33
2024-03-13T12:12:36.334Z,48.28
2024-03-13T12:13:38.682Z,49.15
2024-03-13T12:14:41.104Z,50.43
2024-03-13T12:15:45.740Z,49.03
2024-03-13T12:16:48.475Z,52.08
2024-03-13T12:17:56.483Z,53.34
2024-03-13T12:18:58.183Z,49.73
2024-03-13T12:19:59.800Z,50.70
2024-03-13T12:21:02.951Z,51.24
2024-03-13T12:22:04.729Z,51.84
2024-03-13T12:23:09.520Z,48.82
2024-03-13T12:24:13.011Z,51.38
2024-03-13T12:25:14.747Z,49.53
2024-03-13T12:26:16.980Z,49.42
2024-03-13T12:27:19.379Z,49.72
2024-03-13T12:28:24.081Z,51.45
2024-03-13T12:29:29.122Z,50.58
2024-03-13T12:30:38.797Z,51.13
2024-03-13T12:31:41.858Z,52.68
2024-03-13T12:32:43.446Z,51.98
2024-03-13T12:33:48.629Z,52.48
2024-03-13T12:34:50.870Z,52.15
2024-03-13T12:36:00.139Z,49.24
2024-03-13T12:37:01.713Z,49.91
2024-03-13T12:38:03.239Z,48.50
2024-03-13T12:39:04.771Z,50.47
2024-03-13T12:40:10.037Z,49.76
2024-03-13T12:41:13.115Z,50.77
2024-03-13T12:42:15.348Z,51.47
2024-03-13T12:43:17.721Z,51.43
2024-03-13T12:44:19.625Z,51.75
2024-03-13T12:45:21.517Z,50.94
2024-03-13T12:46:23.133Z,50.80
2024-03-13T12:47:27.288Z,51.61
2024-03-13T12:48:34.534Z,49.55
2024-03-13T12:49:36.273Z,50.81
2024-03-13T12:50:37.921Z,47.36
2024-03-13T12:51:40.178Z,50.87
2024-03-13T12:52:42.950Z,50.47
2024-03-13T12:53:46.135Z,49.64
2024-03-13T12:54:48.240Z,51.79
2024-03-13T12:55:49.773Z,51.38
2024-03-13T12:56:52.104Z,50.37
2024-03-13T12:58:01.890Z,51.70
2024-03-13T12:59:03.352Z,51.20
2024-03-13T13:00:15.080Z,51.60
2024-03-13T13:01:17.933Z,50.75
2024-03-13T13:02:23.453Z,49.03
2024-03-13T13:03:24.973Z,50.59
2024-03-13T13:04:27.026Z,50.42
2024-03-13T13:05:30.389Z,53.08
2024-03-13T13:06:32.397Z,48.95
2024-03-13T13:07:33.998Z,49.83
2024-03-13T13:08:36.345Z,50.30
2024-03-13T13:09:37.831Z,51.24
2024-03-13T13:10:41.025Z,51.42
2024-03-13T13:11:45.529Z,50.73
2024-03-13T13:12:47.681Z,51.17
2024-03-13T13:13:49.163Z,50.90
2024-03-13T13:14:50.791Z,52.37
2024-03-13T13:15:52.337Z,50.25
2024-03-13T13:16:55.370Z,51.00
2024-03-13T13:17:57.144Z,52.54
2024-03-13T13:19:00.167Z,49.92
2024-03-13T13:20:01.793Z,51.04
2024-03-13T13:21:04.977Z,49.17
2024-03-13T13:22:07.569Z,48.59
2024-03-13T13:23:10.904Z,50.84
2024-03-13T13:24:13.925Z,48.91
2024-03-13T13:25:18.512Z,48.94
2024-03-13T13:26:20.093Z,49.41
2024-03-13T13:27:21.665Z,48.78
2024-03-13T13:28:23.948Z,49.16
2024-03-13T13:29:25.452Z,50.90
2024-03-13T13:30:27.100Z,48.37
2024-03-13T13:31:28.920Z,47.86
2024-03-13T13:32:30.497Z,46.72
2024-03-13T13:33:32.228Z,48.97
2024-03-13T13:34:33.739Z,50.84
2024-03-13T13:35:35.292Z,50.61
2024-03-13T13:36:37.378Z,48.87
2024-03-13T13:37:39.590Z,47.80
2024-03-13T13:38:41.152Z,50.36
2024-03-13T13:39:42.707Z,49.50
2024-03-13T13:40:44.182Z,52.06
2024-03-13T13:41:47.256Z,50.59
2024-03-13T13:42:52.249Z,51.79
2024-03-13T13:43:54.023Z,53.41
2024-03-13T13:44:55.609Z,52.99
2024-03-13T13:46:06.413Z,50.72
2024-03-13T13:47:08.069Z,51.11
2024-03-13T13:48:10.431Z,52.07
2024-03-13T13:49:12.500Z,51.30
2024-03-13T13:50:19.739Z,52.78
2024-03-13T13:51:21.360Z,50.66
2024-03-13T13:52:24.946Z,49.78
2024-03-13T13:53:27.847Z,50.61
2024-03-13T13:54:31.113Z,50.10
2024-03-13T13:55:34.140Z,51.84
2024-03-13T13:56:35.772Z,51.23
2024-03-13T13:57:48.451Z,51.54
2024-03-13T13:58:53.053Z,52.79
2024-03-13T13:59:54.539Z,51.71
2024-03-13T14:00:56.035Z,51.92
2024-03-13T14:01:57.584Z,52.84
2024-03-13T14:02:59.065Z,51.99
2024-03-13T14:04:00.556Z,53.25
2024-03-13T14:05:02.305Z,52.51
2024-03-13T14:06:04.630Z,51.80
2024-03-13T14:07:09.116Z,51.49
2024-03-13T14:08:11.133Z,51.08
2024-03-13T14:09:14.962Z,53.15
2024-03-13T14:10:16.574Z,53.25
2024-03-13T14:11:20.078Z,53.99
2024-03-13T14:12:33.102Z,56.48
2024-03-13T14:13:39.574Z,56.34
2024-03-13T14:14:41.619Z,57.46
2024-03-13T14:15:43.235Z,55.34
2024-03-13T14:16:44.861Z,55.40
2024-03-13T14:17:46.848Z,54.89
2024-03-13T14:18:48.717Z,56.07
2024-03-13T14:19:50.701Z,55.24
2024-03-13T14:20:52.948Z,52.39